28 de setembro de 2022

Hora Código Clima Temp. Visibilidade Tecto Vento METAR/SPECI
13:49
M
14 °C 9 mi 2.500 ft 360° 360° 11 - 16 kt METAR CYOO 281749Z AUTO 36011G16KT 310V020 9SM BKN025 14/08 A3026 RMK SLP249
13:00
M
13 °C 9 mi 2.100 ft 350° 350° 13 kt METAR CYOO 281700Z AUTO 35013KT 9SM OVC021 13/09 A3025 RMK SLP248
12:12
M
13 °C 9 mi 2.300 ft 340° 340° 12 kt METAR CYOO 281612Z AUTO 34012KT 9SM OVC023 13/08 A3023 RMK WSHFT AT 1601Z SLP242
12:00
M
13 °C 9 mi 2.100 ft 030° 030° 12 - 17 kt METAR CYOO 281600Z AUTO 03012G17KT 9SM OVC021 13/08 A3023 RMK SLP239
11:00
M
12 °C 9 mi 1.700 ft 350° 350° 10 - 17 kt METAR CYOO 281500Z AUTO 35010G17KT 9SM OVC017 12/09 A3021 RMK SLP233
10:00
M
12 °C 9 mi 1.700 ft 350° 350° 8 - 15 kt METAR CYOO 281400Z AUTO 35008G15KT 9SM OVC017 12/09 A3018 RMK SLP224
09:22
M
11 °C 9 mi 1.700 ft 340° 340° 8 kt METAR CYOO 281322Z AUTO 34008KT 9SM BKN017 BKN066 OVC077 11/10 A3016 RMK SLP217
09:07
V
11 °C 9 mi 7.100 ft 340° 340° 8 kt METAR CYOO 281307Z AUTO 34008KT 9SM SCT017 OVC071 11/10 A3015 RMK SLP215
09:02
V
11 °C 9 mi 7.600 ft 340° 340° 8 kt METAR CYOO 281302Z AUTO 34008KT 9SM -RA SCT015 OVC076 11/10 A3015 RMK SLP213
08:30
M
11 °C 9 mi 1.500 ft 340° 340° 8 kt METAR CYOO 281230Z AUTO 34008KT 9SM -RA OVC015 11/10 A3014 RMK SLP209
08:15
M
11 °C 9 mi 1.500 ft 340° 340° 7 kt METAR CYOO 281215Z AUTO 34007KT 9SM -RA OVC015 11/10 A3013 RMK SLP207
08:00
M
11 °C 9 mi 1.300 ft 340° 340° 7 kt METAR CYOO 281200Z AUTO 34007KT 9SM BKN013 OVC039 11/10 A3012 RMK SLP205
07:53
M
11 °C 9 mi 2.000 ft 340° 340° 8 kt METAR CYOO 281153Z AUTO 34008KT 9SM SCT013 BKN020 OVC039 11/10 A3012 RMK SLP204
07:35
V
11 °C 9 mi 3.900 ft 330° 330° 6 kt METAR CYOO 281135Z AUTO 33006KT 9SM SCT015 OVC039 11/10 A3011 RMK SLP201
07:00
M
11 °C 9 mi 1.500 ft 350° 350° 6 kt METAR CYOO 281100Z AUTO 35006KT 9SM BKN015 BKN021 OVC076 11/10 A3009 RMK SLP194
06:40
M
12 °C 9 mi 1.700 ft 350° 350° 8 kt METAR CYOO 281040Z AUTO 35008KT 9SM BKN017 OVC076 12/10 A3008 RMK SLP189
06:00
V
12 °C 9 mi 5.000 ft 340° 340° 10 kt METAR CYOO 281000Z AUTO 34010KT 9SM BKN050 OVC076 12/10 A3006 RMK SLP182
05:00
V
12 °C 9 mi 7.500 ft 330° 330° 8 kt METAR CYOO 280900Z AUTO 33008KT 9SM SCT060 OVC075 12/10 A3004 RMK SLP175
04:00
V
12 °C 9 mi 7.600 ft 350° 350° 8 - 16 kt METAR CYOO 280800Z AUTO 35008G16KT 9SM OVC076 12/10 A3001 RMK SLP166
03:00
V
12 °C 9 mi 7.100 ft 340° 340° 9 kt METAR CYOO 280700Z AUTO 34009KT 9SM OVC071 12/10 A3000 RMK SLP161
02:00
V
12 °C 9 mi 9.400 ft 320° 320° 10 - 15 kt METAR CYOO 280600Z AUTO 32010G15KT 9SM FEW066 BKN094 12/10 A2998 RMK SLP157
01:00
V
12 °C 9 mi 7.600 ft 330° 330° 9 kt METAR CYOO 280500Z AUTO 33009KT 9SM BKN076 12/10 A2997 RMK SLP150
00:00
M
12 °C 9 mi 2.800 ft 330° 330° 4 kt METAR CYOO 280400Z AUTO 33004KT 300V020 9SM BKN028 OVC076 12/10 A2996 RMK SLP147

27 de setembro de 2022

Hora Código Clima Temp. Visibilidade Tecto Vento METAR/SPECI
23:00
V
12 °C 9 mi 8.100 ft 320° 320° 8 kt METAR CYOO 280300Z AUTO 32008KT 9SM OVC081 12/11 A2993 RMK SLP137
22:00
V
13 °C 9 mi 7.100 ft 330° 330° 5 kt METAR CYOO 280200Z AUTO 33005KT 9SM BKN071 OVC082 13/11 A2991 RMK SLP130
21:00
V
12 °C 9 mi 7.100 ft 300° 300° 4 kt METAR CYOO 280100Z AUTO 30004KT 9SM BKN071 12/11 A2989 RMK SLP125
20:00
V
12 °C 9 mi 7.100 ft 300° 300° 5 kt METAR CYOO 280000Z AUTO 30005KT 9SM OVC071 12/12 A2987 RMK SLP118
19:38
V
12 °C 9 mi 7.100 ft 300° 300° 5 kt METAR CYOO 272338Z AUTO 30005KT 9SM BKN071 OVC085 12/11 A2986 RMK SLP114
19:00
V
12 °C 7 mi 6.600 ft 330° 330° 5 kt METAR CYOO 272300Z AUTO 33005KT 7SM -RA OVC066 12/11 A2985 RMK SLP110
18:24
V
13 °C 9 mi 4.100 ft 290° 290° 9 kt METAR CYOO 272224Z AUTO 29009KT 9SM -RA SCT032 BKN041 BKN050 OVC060 13/11 A2983 RMK SLP106 DENSITY ALT 500FT
18:00
V
14 °C 9 mi 6.000 ft 350° 350° 6 kt METAR CYOO 272200Z AUTO 35006KT 310V010 9SM FEW028 SCT036 BKN060 OVC073 14/12 A2983 RMK SLP105 DENSITY ALT 600FT
17:00
V
14 °C 9 mi 6.000 ft 250° 250° 4 kt METAR CYOO 272100Z AUTO 25004KT 210V280 9SM OVC060 14/12 A2980 RMK SLP095 DENSITY ALT 700FT
16:00
V
14 °C 9 mi 6.000 ft 210° 210° 4 kt METAR CYOO 272000Z AUTO 21004KT 180V240 9SM BKN060 OVC081 14/12 A2978 RMK SLP089 DENSITY ALT 600FT
15:48
V
14 °C 8 mi 6.600 ft 210° 210° 3 kt METAR CYOO 271948Z AUTO 21003KT 160V230 8SM BKN066 OVC080 14/12 A2978 RMK LTNG DIST W SLP088 DENSITY ALT 600FT
15:18
V
13 °C 7 mi 7.100 ft Var Var 2 kt METAR CYOO 271918Z AUTO VRB02KT 7SM -RA BKN071 OVC084 13/11 A2977 RMK SLP086 DENSITY ALT 600FT
15:00
I
13 °C 3 mi 6.600 ft Var 000° 0 kt METAR CYOO 271900Z AUTO 00000KT 3SM -RA BR BKN066 OVC079 13/11 A2977 RMK SLP086 DENSITY ALT 500FT
14:44
I
12 °C 3 mi 4.900 ft 180° 180° 4 kt METAR CYOO 271844Z AUTO 18004KT 3SM RA BR FEW025 BKN049 OVC066 12/11 A2977 RMK SLP084 DENSITY ALT 500FT
14:34
M
13 °C 4 mi 3.800 ft Var 000° 0 kt METAR CYOO 271834Z AUTO 00000KT 4SM RA FEW020 BKN038 OVC060 13/10 A2977 RMK SLP085 DENSITY ALT 500FT
14:26
V
13 °C 5 mi 3.500 ft 250° 250° 3 kt METAR CYOO 271826Z AUTO 25003KT 220V320 5SM +RA BR FEW020 SCT028 BKN035 OVC055 13/11 A2977 RMK SLP084 DENSITY ALT 600FT
14:23
V
13 °C 6 mi 3.700 ft 280° 280° 5 kt METAR CYOO 271823Z AUTO 28005KT 150V320 6SM +RA BR FEW020 SCT028 BKN037 OVC046 13/11 A2977 RMK SLP084 DENSITY ALT 600FT
14:16
V
14 °C 9 mi 3.800 ft 170° 170° 3 kt METAR CYOO 271816Z AUTO 17003KT 9SM TS FEW028 OVC038 14/12 A2976 RMK SLP080 DENSITY ALT 700FT
14:03
V
15 °C 9 mi 4.300 ft Var Var 5 kt METAR CYOO 271803Z AUTO VRB05KT 9SM -TSRA SCT032 BKN043 OVC071 15/13 A2976 RMK SLP079 DENSITY ALT 800FT
14:00
V
15 °C 9 mi 4.300 ft Var Var 3 kt METAR CYOO 271800Z AUTO VRB03KT 9SM -RA SCT032 BKN043 BKN071 OVC089 15/13 A2975 RMK PCPN 0.8MM PAST HR SLP078 DENSITY ALT 800FT
13:45
V
16 °C 9 mi 7.100 ft 330° 330° 8 kt METAR CYOO 271745Z AUTO 33008KT 270V340 9SM -RA FEW050 BKN071 BKN090 OVC120 16/12 A2974 RMK SLP075 DENSITY ALT 900FT
13:36
V
16 °C 9 mi 9.100 ft Var Var 3 kt METAR CYOO 271736Z AUTO VRB03KT 9SM FEW025 SCT048 BKN091 OVC110 16/12 A2974 RMK SLP075 DENSITY ALT 900FT
13:26
V
16 °C 9 mi 4.600 ft Var Var 2 kt METAR CYOO 271726Z AUTO VRB02KT 9SM -RA SCT025 BKN046 BKN071 OVC130 16/11 A2974 RMK LTNG DIST W SLP075 DENSITY ALT 900FT
13:22
V
16 °C 9 mi 3.400 ft Var Var 2 kt METAR CYOO 271722Z AUTO VRB02KT 9SM +RA SCT025 BKN034 BKN050 OVC071 16/12 A2974 RMK LTNG DIST W SLP075 DENSITY ALT 900FT
13:00
V
16 °C 9 mi 3.300 ft 250° 250° 6 kt METAR CYOO 271700Z AUTO 25006KT 190V280 9SM SCT025 BKN033 OVC044 16/11 A2974 RMK SLP074 DENSITY ALT 900FT
12:00
M
16 °C 9 mi 2.700 ft 290° 290° 9 kt METAR CYOO 271600Z AUTO 29009KT 230V310 9SM SCT019 BKN027 BKN071 OVC110 16/11 A2973 RMK SLP071 DENSITY ALT 900FT
11:46
M
16 °C 9 mi 2.500 ft 260° 260° 6 kt METAR CYOO 271546Z AUTO 26006KT 250V320 9SM SCT019 BKN025 OVC110 16/12 A2973 RMK SLP071 DENSITY ALT 900FT
11:00
M
14 °C 9 mi 1.500 ft 280° 280° 6 kt METAR CYOO 271500Z AUTO 28006KT 240V300 9SM BKN015 OVC071 14/11 A2973 RMK SLP071 DENSITY ALT 700FT
10:33
M
14 °C 9 mi 1.900 ft 250° 250° 6 kt METAR CYOO 271433Z AUTO 25006KT 9SM SCT014 BKN019 OVC071 14/11 A2972 RMK SLP068 DENSITY ALT 700FT
10:24
V
14 °C 9 mi 6.600 ft 260° 260° 6 kt METAR CYOO 271424Z AUTO 26006KT 9SM SCT017 BKN066 BKN079 OVC096 14/11 A2972 RMK SLP067 DENSITY ALT 700FT
10:21
M
14 °C 9 mi 1.900 ft 250° 250° 5 kt METAR CYOO 271421Z AUTO 25005KT 9SM FEW013 BKN019 BKN076 OVC096 14/11 A2972 RMK SLP066 DENSITY ALT 700FT
10:00
V
14 °C 9 mi 9.600 ft 270° 270° 9 kt METAR CYOO 271400Z AUTO 27009KT 9SM OVC096 14/11 A2971 RMK SLP063 DENSITY ALT 700FT
09:00
V
13 °C 9 mi 8.600 ft 280° 280° 5 kt METAR CYOO 271300Z AUTO 28005KT 9SM OVC086 13/11 A2969 RMK SLP057 DENSITY ALT 600FT
08:00
V
12 °C 9 mi 12.000 ft 240° 240° 2 kt METAR CYOO 271200Z AUTO 24002KT 9SM SCT081 OVC120 12/11 A2967 RMK SLP051 DENSITY ALT 500FT
07:00
V
12 °C 9 mi 8.100 ft 270° 270° 6 kt METAR CYOO 271100Z AUTO 27006KT 9SM OVC081 12/11 A2965 RMK SLP044 DENSITY ALT 600FT
06:00
V
12 °C 9 mi 7.600 ft 270° 270° 5 kt METAR CYOO 271000Z AUTO 27005KT 9SM BKN076 BKN200 BKN220 12/11 A2963 RMK SLP037 DENSITY ALT 600FT
05:09
V
12 °C 9 mi 6.000 ft 250° 250° 4 kt METAR CYOO 270909Z AUTO 25004KT 9SM SCT014 BKN060 BKN081 BKN100 12/11 A2962 RMK SLP032 DENSITY ALT 600FT
05:03
M
12 °C 9 mi 1.400 ft 250° 250° 5 kt METAR CYOO 270903Z AUTO 25005KT 9SM BKN014 BKN060 BKN100 12/11 A2962 RMK SLP032 DENSITY ALT 600FT
04:00
V
12 °C 9 mi 21.000 ft 270° 270° 6 kt METAR CYOO 270800Z AUTO 27006KT 9SM FEW021 SCT055 SCT110 BKN210 12/11 A2961 RMK SLP029 DENSITY ALT 600FT
03:50
V
12 °C 9 mi 4.100 ft 260° 260° 6 kt METAR CYOO 270750Z AUTO 26006KT 9SM SCT019 BKN041 12/11 A2960 RMK SLP028 DENSITY ALT 600FT
03:19
M
12 °C 9 mi 1.700 ft 260° 260° 8 kt METAR CYOO 270719Z AUTO 26008KT 9SM BKN017 OVC043 12/12 A2960 RMK SLP027 DENSITY ALT 700FT
03:00
V
12 °C 9 mi 4.100 ft 250° 250° 8 kt METAR CYOO 270700Z AUTO 25008KT 9SM FEW017 OVC041 12/11 A2960 RMK SLP025 DENSITY ALT 700FT
02:45
V
12 °C 9 mi 3.400 ft 250° 250° 6 kt METAR CYOO 270645Z AUTO 25006KT 9SM SCT020 BKN034 OVC043 12/12 A2959 RMK SLP024 DENSITY ALT 700FT
02:22
M
12 °C 9 mi 2.100 ft 250° 250° 6 kt METAR CYOO 270622Z AUTO 25006KT 9SM SCT016 BKN021 BKN026 OVC050 12/12 A2959 RMK SLP025 DENSITY ALT 700FT
02:13
M
12 °C 6 mi 2.300 ft 250° 250° 6 kt METAR CYOO 270613Z AUTO 25006KT 210V270 6SM -RA BR SCT016 BKN023 BKN027 OVC041 12/12 A2959 RMK SLP024 DENSITY ALT 700FT
02:08
M
12 °C 5 mi 1.600 ft 250° 250° 7 kt METAR CYOO 270608Z AUTO 25007KT 210V270 5SM -RA BR BKN016 BKN020 OVC026 12/12 A2959 RMK SLP024 DENSITY ALT 700FT
01:48
M
12 °C 8 mi 1.800 ft 260° 260° 7 kt METAR CYOO 270548Z AUTO 26007KT 8SM -RA BKN018 BKN022 OVC046 12/11 A2959 RMK SLP023 DENSITY ALT 700FT
01:34
M
12 °C 9 mi 2.000 ft 260° 260° 9 kt METAR CYOO 270534Z AUTO 26009KT 9SM BKN020 BKN036 OVC046 12/11 A2958 RMK SLP021 DENSITY ALT 700FT
01:31
V
12 °C 9 mi 3.600 ft 260° 260° 9 kt METAR CYOO 270531Z AUTO 26009KT 9SM SCT020 BKN036 OVC046 12/11 A2958 RMK SLP021 DENSITY ALT 700FT
01:18
V
13 °C 7 mi 4.600 ft 250° 250° 7 kt METAR CYOO 270518Z AUTO 25007KT 7SM -RA SCT036 OVC046 13/11 A2958 RMK SLP020 DENSITY ALT 700FT
01:00
V
13 °C 9 mi 5.000 ft 260° 260° 7 kt METAR CYOO 270500Z AUTO 26007KT 9SM SCT036 OVC050 13/11 A2957 RMK SLP016 DENSITY ALT 700FT
00:00
V
13 °C 9 mi 3.400 ft 270° 270° 10 kt METAR CYOO 270400Z AUTO 27010KT 9SM SCT018 SCT029 BKN034 OVC071 13/11 A2955 RMK SLP010 DENSITY ALT 800FT

26 de setembro de 2022

Hora Código Clima Temp. Visibilidade Tecto Vento METAR/SPECI
23:34
M
13 °C 9 mi 2.700 ft 270° 270° 11 - 19 kt METAR CYOO 270334Z AUTO 27011G19KT 9SM SCT018 BKN027 OVC032 13/11 A2954 RMK SLP006 DENSITY ALT 800FT
23:00
M
13 °C 9 mi 2.000 ft 270° 270° 13 - 18 kt METAR CYOO 270300Z AUTO 27013G18KT 9SM OVC020 13/11 A2952 RMK SLP999 DENSITY ALT 800FT
22:00
M
13 °C 9 mi 1.800 ft 260° 260° 13 - 21 kt METAR CYOO 270200Z AUTO 26013G21KT 9SM OVC018 13/11 A2949 RMK SLP989 DENSITY ALT 900FT
21:00
M
12 °C 9 mi 1.700 ft 230° 230° 11 - 20 kt METAR CYOO 270100Z AUTO 23011G20KT 9SM OVC017 12/11 A2948 RMK SLP986 DENSITY ALT 800FT
20:46
M
12 °C 9 mi 1.700 ft 210° 210° 10 - 16 kt METAR CYOO 270046Z AUTO 21010G16KT 9SM BKN017 OVC021 12/11 A2948 RMK SLP986 DENSITY ALT 800FT
20:11
M
12 °C 9 mi 2.300 ft 210° 210° 13 - 19 kt METAR CYOO 270011Z AUTO 21013G19KT 9SM -RA OVC023 12/11 A2948 RMK SLP986 DENSITY ALT 800FT
20:00
M
12 °C 9 mi 2.500 ft 210° 210° 12 - 17 kt METAR CYOO 270000Z AUTO 21012G17KT 9SM -RA BKN025 BKN060 OVC072 12/11 A2949 RMK PCPN 2.0MM PAST HR SLP988 DENSITY ALT 800FT
19:00
V
12 °C 9 mi 6.600 ft 210° 210° 8 kt METAR CYOO 262300Z AUTO 21008KT 9SM -RA SCT030 OVC066 12/11 A2950 RMK SLP995 DENSITY ALT 800FT
18:00
V
13 °C 9 mi 7.100 ft 230° 230° 9 - 18 kt METAR CYOO 262200Z AUTO 23009G18KT 9SM -RA OVC071 13/10 A2952 RMK SLP998 DENSITY ALT 800FT
17:36
V
14 °C 9 mi 7.100 ft 240° 240° 9 - 18 kt METAR CYOO 262136Z AUTO 24009G18KT 9SM -RA BKN071 OVC087 14/09 A2951 RMK SLP997 DENSITY ALT 1000FT
17:00
V
15 °C 9 mi 5.500 ft 240° 240° 11 - 18 kt METAR CYOO 262100Z AUTO 24011G18KT 200V270 9SM FEW029 SCT036 BKN055 OVC081 15/09 A2950 RMK SLP993 DENSITY ALT 1100FT
16:38
V
15 °C 9 mi 6.000 ft 260° 260° 8 kt METAR CYOO 262038Z AUTO 26008KT 9SM FEW030 SCT042 OVC060 15/11 A2950 RMK SLP992 DENSITY ALT 1000FT
16:23
V
15 °C 8 mi 4.000 ft 240° 240° 10 - 16 kt METAR CYOO 262023Z AUTO 24010G16KT 8SM -RA FEW030 BKN040 BKN060 BKN086 15/11 A2950 RMK SLP991 DENSITY ALT 1100FT
16:00
V
16 °C 9 mi 8.600 ft 220° 220° 9 - 16 kt METAR CYOO 262000Z AUTO 22009G16KT 9SM BKN086 BKN230 16/10 A2948 RMK SLP987 DENSITY ALT 1200FT
15:00
V
16 °C 9 mi 7.600 ft 210° 210° 13 - 24 kt METAR CYOO 261900Z AUTO 21013G24KT 190V250 9SM FEW037 SCT048 OVC076 16/10 A2948 RMK SLP986 DENSITY ALT 1200FT
14:00
V
15 °C 9 mi 7.100 ft 210° 210° 12 - 23 kt METAR CYOO 261800Z AUTO 21012G23KT 9SM OVC071 15/10 A2948 RMK SLP987 DENSITY ALT 1200FT
13:00
V
16 °C 9 mi - 200° 200° 13 - 20 kt METAR CYOO 261700Z AUTO 20013G20KT 9SM CLR 16/10 A2949 RMK SLP989 DENSITY ALT 1200FT
12:00
V
14 °C 9 mi 22.000 ft 190° 190° 13 - 20 kt METAR CYOO 261600Z AUTO 19013G20KT 9SM BKN220 14/11 A2950 RMK SLP994 DENSITY ALT 1000FT
11:00
V
14 °C 9 mi 5.500 ft 190° 190° 10 kt METAR CYOO 261500Z AUTO 19010KT 160V230 9SM FEW020 BKN055 BKN079 BKN190 14/11 A2951 RMK SLP996 DENSITY ALT 1000FT
Dados mais antigos

Nós e terceiros acompanhamos seu comportamento na internet em nosso site com cookies. Se você continuar, nós assumimos que você concorda com nossa política de cookies. Saiba mais